createdAt,value
2024-02-24T00:00:25.913Z,71.77
2024-02-24T00:05:28.487Z,72.20
2024-02-24T00:10:29.904Z,72.27
2024-02-24T00:15:31.522Z,72.91
2024-02-24T00:20:33.087Z,73.21
2024-02-24T00:25:35.524Z,72.80
2024-02-24T00:30:37.699Z,72.75
2024-02-24T00:35:40.313Z,73.04
2024-02-24T00:40:43.823Z,73.04
2024-02-24T00:45:45.506Z,73.57
2024-02-24T00:50:46.956Z,73.40
2024-02-24T00:55:49.354Z,74.25
2024-02-24T01:00:50.998Z,74.03
2024-02-24T01:05:52.662Z,73.82
2024-02-24T01:10:54.008Z,74.71
2024-02-24T01:15:55.554Z,74.36
2024-02-24T01:20:57.528Z,74.52
2024-02-24T01:25:58.985Z,74.19
2024-02-24T01:31:00.291Z,74.41
2024-02-24T01:36:02.344Z,74.66
2024-02-24T01:41:04.076Z,75.09
2024-02-24T01:46:07.733Z,74.12
2024-02-24T01:51:16.130Z,75.27
2024-02-24T01:56:19.203Z,74.46
2024-02-24T02:01:20.731Z,74.84
2024-02-24T02:06:23.627Z,74.14
2024-02-24T02:11:25.564Z,73.00
2024-02-24T02:16:27.212Z,73.90
2024-02-24T02:21:32.885Z,73.25
2024-02-24T02:26:34.269Z,73.76
2024-02-24T02:31:35.755Z,73.19
2024-02-24T02:36:37.120Z,72.63
2024-02-24T02:41:38.656Z,72.82
2024-02-24T02:46:42.787Z,72.82
2024-02-24T02:51:44.881Z,72.75
2024-02-24T02:56:46.533Z,72.93
2024-02-24T03:01:49.684Z,72.20
2024-02-24T03:06:51.174Z,72.71
2024-02-24T03:11:52.790Z,73.70
2024-02-24T03:16:55.181Z,73.68
2024-02-24T03:22:02.949Z,73.98
2024-02-24T03:27:04.470Z,74.12
2024-02-24T03:32:07.527Z,73.40
2024-02-24T03:37:08.914Z,73.97
2024-02-24T03:42:11.345Z,74.46
2024-02-24T03:47:12.802Z,74.82
2024-02-24T03:52:14.131Z,75.19
2024-02-24T03:57:15.732Z,75.44
2024-02-24T04:02:17.336Z,76.01
2024-02-24T04:07:19.788Z,76.47
2024-02-24T04:12:21.183Z,76.92
2024-02-24T04:17:22.812Z,77.54
2024-02-24T04:22:24.249Z,77.16
2024-02-24T04:27:25.579Z,77.84
2024-02-24T04:32:28.409Z,77.91
2024-02-24T04:37:31.848Z,78.37
2024-02-24T04:42:33.231Z,78.84
2024-02-24T04:47:37.686Z,79.27
2024-02-24T04:52:39.104Z,79.99
2024-02-24T04:57:40.480Z,80.95
2024-02-24T05:02:41.883Z,81.53
2024-02-24T05:07:43.402Z,81.74
2024-02-24T05:12:52.604Z,82.79
2024-02-24T05:17:54.094Z,82.35
2024-02-24T05:22:55.620Z,82.56
2024-02-24T05:28:00.413Z,82.69
2024-02-24T05:33:02.190Z,83.03
2024-02-24T05:38:03.773Z,83.24
2024-02-24T05:43:05.126Z,83.90
2024-02-24T05:48:06.953Z,84.32
2024-02-24T05:53:10.833Z,84.73
2024-02-24T05:58:16.032Z,85.16
2024-02-24T06:03:18.073Z,85.23
2024-02-24T06:08:19.657Z,85.14
2024-02-24T06:13:21.314Z,84.92
2024-02-24T06:18:24.642Z,85.26
2024-02-24T06:23:26.333Z,85.35
2024-02-24T06:28:28.472Z,84.74
2024-02-24T06:33:31.399Z,84.81
2024-02-24T06:38:33.258Z,84.87
2024-02-24T06:43:34.699Z,85.09
2024-02-24T06:48:36.836Z,85.02
2024-02-24T06:53:38.415Z,85.80
2024-02-24T06:58:40.452Z,85.92
2024-02-24T07:03:44.216Z,85.61
2024-02-24T07:08:46.904Z,86.05
2024-02-24T07:13:48.665Z,85.42
2024-02-24T07:18:50.166Z,85.50
2024-02-24T07:23:53.483Z,86.34
2024-02-24T07:28:56.082Z,86.81
2024-02-24T07:33:58.852Z,87.15
2024-02-24T07:39:00.326Z,87.56
2024-02-24T07:44:05.471Z,87.88
2024-02-24T07:49:07.952Z,89.27
2024-02-24T07:54:09.456Z,90.77
2024-02-24T07:59:11.128Z,91.91
2024-02-24T08:04:12.726Z,92.26
2024-02-24T08:09:14.033Z,93.03
2024-02-24T08:14:15.512Z,94.05
2024-02-24T08:19:16.933Z,94.79
2024-02-24T08:24:18.262Z,95.13
2024-02-24T08:29:19.586Z,95.58
2024-02-24T08:34:21.207Z,93.87
2024-02-24T08:39:23.639Z,93.36
2024-02-24T08:44:25.014Z,93.11
2024-02-24T08:49:27.753Z,94.53
2024-02-24T08:54:29.525Z,95.71
2024-02-24T08:59:31.459Z,96.25
2024-02-24T09:04:32.886Z,97.46
2024-02-24T09:09:34.906Z,95.71
2024-02-24T09:14:36.264Z,95.27
2024-02-24T09:19:37.812Z,95.95
2024-02-24T09:24:39.441Z,95.13
2024-02-24T09:29:41.030Z,97.19
2024-02-24T09:34:44.188Z,96.55
2024-02-24T09:39:45.519Z,95.54
2024-02-24T09:44:48.544Z,96.00
2024-02-24T09:49:52.037Z,94.65
2024-02-24T09:54:53.443Z,93.03
2024-02-24T09:59:58.468Z,91.62
2024-02-24T10:04:59.996Z,92.75
2024-02-24T10:10:04.388Z,90.41
2024-02-24T10:15:07.014Z,86.24
2024-02-24T10:20:09.812Z,82.83
2024-02-24T10:25:12.550Z,83.24
2024-02-24T10:30:14.757Z,81.86
2024-02-24T10:35:16.999Z,80.49
2024-02-24T10:40:20.737Z,81.06
2024-02-24T10:45:23.037Z,69.34
2024-02-24T10:50:24.760Z,68.97
2024-02-24T10:55:27.533Z,69.24
2024-02-24T11:00:33.191Z,66.62
2024-02-24T11:05:36.249Z,65.95
2024-02-24T11:10:41.433Z,64.38
2024-02-24T11:15:42.933Z,63.30
2024-02-24T11:20:44.275Z,64.78
2024-02-24T11:25:45.961Z,66.15
2024-02-24T11:30:58.330Z,66.25
2024-02-24T11:36:02.454Z,64.00
2024-02-24T11:41:05.360Z,62.03
2024-02-24T11:46:07.047Z,60.42
2024-02-24T11:51:08.475Z,49.51
2024-02-24T11:56:09.930Z,47.83
2024-02-24T12:01:15.929Z,49.76
2024-02-24T12:06:18.493Z,45.55
2024-02-24T12:11:21.334Z,44.63
2024-02-24T12:16:25.331Z,42.19
2024-02-24T12:21:29.007Z,38.62
2024-02-24T12:26:30.746Z,39.39
2024-02-24T12:31:32.346Z,37.20
2024-02-24T12:36:34.162Z,33.47
2024-02-24T12:41:35.469Z,32.35
2024-02-24T12:46:37.225Z,29.29
2024-02-24T12:51:39.315Z,29.07
2024-02-24T12:56:40.833Z,35.38
2024-02-24T13:01:43.513Z,40.82
2024-02-24T13:06:45.361Z,42.14
2024-02-24T13:11:51.628Z,42.82
2024-02-24T13:16:53.179Z,39.80
2024-02-24T13:21:54.480Z,43.14
2024-02-24T13:26:56.117Z,44.80
2024-02-24T13:31:58.866Z,46.96
2024-02-24T13:37:00.246Z,47.65
2024-02-24T13:42:02.298Z,47.84
2024-02-24T13:47:04.065Z,48.05
2024-02-24T13:52:06.580Z,49.95
2024-02-24T13:57:08.629Z,50.64
2024-02-24T14:02:10.264Z,51.18
2024-02-24T14:07:15.486Z,51.53
2024-02-24T14:12:17.102Z,52.68
2024-02-24T14:17:18.711Z,57.42
2024-02-24T14:22:20.036Z,62.29
2024-02-24T14:27:22.113Z,59.12
2024-02-24T14:32:23.595Z,53.20
2024-02-24T14:37:25.042Z,41.10
2024-02-24T14:42:26.332Z,33.89
2024-02-24T14:47:29.701Z,37.25
2024-02-24T14:52:31.979Z,41.85
2024-02-24T14:57:33.500Z,38.39
2024-02-24T15:02:46.088Z,39.23
2024-02-24T15:07:56.503Z,44.92
2024-02-24T15:12:58.771Z,46.20
2024-02-24T15:18:03.797Z,47.23
2024-02-24T15:23:07.463Z,47.47
2024-02-24T15:28:08.822Z,49.14
2024-02-24T15:33:10.336Z,50.91
2024-02-24T15:38:11.680Z,52.33
2024-02-24T15:43:13.070Z,52.58
2024-02-24T15:48:14.476Z,52.96
2024-02-24T15:53:16.021Z,53.10
2024-02-24T15:58:17.403Z,53.46
2024-02-24T16:03:19.191Z,53.32
2024-02-24T16:08:20.723Z,54.49
2024-02-24T16:13:22.418Z,55.20
2024-02-24T16:18:23.941Z,55.60
2024-02-24T16:23:25.955Z,56.06
2024-02-24T16:28:27.529Z,55.60
2024-02-24T16:33:29.092Z,56.07
2024-02-24T16:38:32.021Z,56.85
2024-02-24T16:43:33.572Z,56.90
2024-02-24T16:48:35.058Z,57.35
2024-02-24T16:53:36.618Z,57.37
2024-02-24T16:58:38.738Z,56.82
2024-02-24T17:03:40.248Z,56.92
2024-02-24T17:08:42.705Z,56.73
2024-02-24T17:13:43.988Z,57.87
2024-02-24T17:18:45.906Z,58.23
2024-02-24T17:23:48.657Z,58.26
2024-02-24T17:28:51.169Z,57.75
2024-02-24T17:33:53.534Z,58.77
2024-02-24T17:38:55.072Z,59.23
2024-02-24T17:43:57.070Z,60.09
2024-02-24T17:49:00.417Z,61.13
2024-02-24T17:54:02.580Z,61.40
2024-02-24T17:59:03.945Z,62.32
2024-02-24T18:04:05.501Z,62.74
2024-02-24T18:09:06.953Z,63.22
2024-02-24T18:14:08.437Z,63.75
2024-02-24T18:19:10.973Z,64.59
2024-02-24T18:24:12.911Z,64.72
2024-02-24T18:29:14.226Z,64.55
2024-02-24T18:34:17.344Z,63.84
2024-02-24T18:39:18.876Z,64.36
2024-02-24T18:44:20.564Z,64.69
2024-02-24T18:49:22.638Z,65.00
2024-02-24T18:54:24.290Z,65.58
2024-02-24T18:59:26.265Z,67.00
2024-02-24T19:04:27.904Z,68.42
2024-02-24T19:09:29.206Z,69.61
2024-02-24T19:14:30.548Z,70.29
2024-02-24T19:19:32.077Z,70.74
2024-02-24T19:24:33.691Z,71.52
2024-02-24T19:29:35.127Z,71.49
2024-02-24T19:34:37.515Z,72.11
2024-02-24T19:39:39.319Z,72.27
2024-02-24T19:44:43.077Z,72.76
2024-02-24T19:49:45.200Z,73.36
2024-02-24T19:54:49.379Z,73.72
2024-02-24T19:59:51.201Z,73.74
2024-02-24T20:04:52.657Z,72.98
2024-02-24T20:09:54.681Z,72.92
2024-02-24T20:14:56.203Z,73.44
2024-02-24T20:19:57.814Z,73.27
2024-02-24T20:24:59.369Z,73.50
2024-02-24T20:30:02.801Z,73.41
2024-02-24T20:35:05.524Z,73.33
2024-02-24T20:40:09.103Z,73.58
2024-02-24T20:45:11.595Z,73.83
2024-02-24T20:50:13.388Z,73.87
2024-02-24T20:55:14.802Z,74.25
2024-02-24T21:00:18.932Z,74.56
2024-02-24T21:05:20.338Z,74.02
2024-02-24T21:10:23.958Z,73.59
2024-02-24T21:15:25.667Z,73.71
2024-02-24T21:20:27.162Z,74.08
2024-02-24T21:25:30.497Z,74.08
2024-02-24T21:30:31.826Z,73.97
2024-02-24T21:35:35.795Z,74.46
2024-02-24T21:40:37.494Z,74.40
2024-02-24T21:45:43.398Z,74.17
2024-02-24T21:50:45.078Z,74.36
2024-02-24T21:55:46.649Z,74.20
2024-02-24T22:00:50.177Z,74.38
2024-02-24T22:05:51.832Z,75.54
2024-02-24T22:10:53.319Z,76.01
2024-02-24T22:15:57.052Z,75.85
2024-02-24T22:20:58.460Z,75.00
2024-02-24T22:25:59.859Z,75.02
2024-02-24T22:31:02.718Z,75.51
2024-02-24T22:36:06.033Z,75.62
2024-02-24T22:41:08.413Z,75.31
2024-02-24T22:46:10.736Z,75.54
2024-02-24T22:51:12.065Z,75.14
2024-02-24T22:56:13.743Z,75.86
2024-02-24T23:01:17.983Z,75.97
2024-02-24T23:06:19.599Z,76.13
2024-02-24T23:11:29.912Z,75.98
2024-02-24T23:16:37.932Z,75.61
2024-02-24T23:21:41.302Z,75.65
2024-02-24T23:26:45.296Z,75.58
2024-02-24T23:31:46.657Z,75.19
2024-02-24T23:36:49.222Z,74.93
2024-02-24T23:41:53.590Z,75.59
2024-02-24T23:46:56.513Z,75.53
2024-02-24T23:51:58.353Z,75.10
2024-02-24T23:56:59.829Z,74.28
